createdAt,value
2018-09-24T00:00:24.721Z,100719.00
2018-09-24T00:02:54.080Z,100724.00
2018-09-24T00:05:23.459Z,100734.00
2018-09-24T00:07:52.819Z,100752.00
2018-09-24T00:10:22.203Z,100755.00
2018-09-24T00:12:51.541Z,100765.00
2018-09-24T00:15:20.934Z,100767.00
2018-09-24T00:17:50.277Z,100774.00
2018-09-24T00:20:19.617Z,100774.00
2018-09-24T00:22:48.957Z,100781.00
2018-09-24T00:25:18.563Z,100788.00
2018-09-24T00:27:47.968Z,100800.00
2018-09-24T00:30:17.364Z,100799.00
2018-09-24T00:32:46.716Z,100804.00
2018-09-24T00:35:16.036Z,100806.00
2018-09-24T00:37:45.388Z,100810.00
2018-09-24T00:40:14.756Z,100809.00
2018-09-24T00:42:44.214Z,100818.00
2018-09-24T00:45:13.596Z,100826.00
2018-09-24T00:47:42.956Z,100828.00
2018-09-24T00:50:12.351Z,100827.00
2018-09-24T00:52:41.708Z,100829.00
2018-09-24T00:55:11.074Z,100834.00
2018-09-24T00:57:40.438Z,100836.00
2018-09-24T01:00:09.779Z,100841.00
2018-09-24T01:02:39.959Z,100843.00
2018-09-24T01:05:09.431Z,100848.00
2018-09-24T01:07:39.144Z,100847.00
2018-09-24T01:10:08.925Z,100849.00
2018-09-24T01:12:38.308Z,100856.00
2018-09-24T01:15:07.960Z,100854.00
2018-09-24T01:17:37.502Z,100863.00
2018-09-24T01:20:07.471Z,100859.00
2018-09-24T01:22:36.798Z,100868.00
2018-09-24T01:25:06.573Z,100866.00
2018-09-24T01:27:36.449Z,100867.00
2018-09-24T01:30:05.957Z,100873.00
2018-09-24T01:32:35.311Z,100886.00
2018-09-24T01:35:04.712Z,100887.00
2018-09-24T01:37:34.080Z,100889.00
2018-09-24T01:40:03.897Z,100896.00
2018-09-24T01:42:33.236Z,100902.00
2018-09-24T01:45:02.602Z,100908.00
2018-09-24T01:47:31.988Z,100911.00
2018-09-24T01:50:01.361Z,100919.00
2018-09-24T01:52:30.773Z,100924.00
2018-09-24T01:55:00.129Z,100927.00
2018-09-24T01:57:29.464Z,100920.00
2018-09-24T01:59:58.871Z,100925.00
2018-09-24T02:02:28.257Z,100935.00
2018-09-24T02:04:57.721Z,100926.00
2018-09-24T02:07:27.081Z,100925.00
2018-09-24T02:09:56.461Z,100931.00
2018-09-24T02:12:25.777Z,100941.00
2018-09-24T02:14:55.147Z,100943.00
2018-09-24T02:17:24.499Z,100941.00
2018-09-24T02:19:53.844Z,100946.00
2018-09-24T02:22:30.527Z,100952.00
2018-09-24T02:25:00.538Z,100958.00
2018-09-24T02:27:29.936Z,100954.00
2018-09-24T02:29:59.263Z,100958.00
2018-09-24T02:32:28.619Z,100956.00
2018-09-24T02:34:58.623Z,100958.00
2018-09-24T02:37:28.007Z,100977.00
2018-09-24T02:39:57.368Z,100990.00
2018-09-24T02:42:26.737Z,100991.00
2018-09-24T02:44:57.283Z,100991.00
2018-09-24T02:47:31.337Z,100995.00
2018-09-24T02:50:02.065Z,101002.00
2018-09-24T02:52:31.445Z,101010.00
2018-09-24T02:55:00.805Z,101016.00
2018-09-24T02:57:30.149Z,101013.00
2018-09-24T02:59:59.592Z,101015.00
2018-09-24T03:02:28.939Z,101013.00
2018-09-24T03:04:58.280Z,101021.00
2018-09-24T03:07:27.636Z,101031.00
2018-09-24T03:09:57.021Z,101033.00
2018-09-24T03:12:26.363Z,101039.00
2018-09-24T03:14:55.737Z,101042.00
2018-09-24T03:17:25.224Z,101042.00
2018-09-24T03:19:54.602Z,101041.00
2018-09-24T03:22:25.138Z,101047.00
2018-09-24T03:24:55.338Z,101052.00
2018-09-24T03:27:25.076Z,101050.00
2018-09-24T03:29:54.516Z,101054.00
2018-09-24T03:32:23.860Z,101062.00
2018-09-24T03:34:53.300Z,101062.00
2018-09-24T03:37:22.647Z,101068.00
2018-09-24T03:39:52.007Z,101070.00
2018-09-24T03:42:21.368Z,101074.00
2018-09-24T03:44:50.693Z,101078.00
2018-09-24T03:47:20.055Z,101076.00
2018-09-24T03:49:49.479Z,101076.00
2018-09-24T03:52:18.815Z,101084.00
2018-09-24T03:54:48.205Z,101093.00
2018-09-24T03:57:17.566Z,101077.00
2018-09-24T03:59:46.916Z,101079.00
2018-09-24T04:02:16.251Z,101085.00
2018-09-24T04:04:50.678Z,101093.00
2018-09-24T04:07:25.240Z,101096.00
2018-09-24T04:09:59.908Z,101102.00
2018-09-24T04:12:34.478Z,101110.00
2018-09-24T04:15:09.035Z,101128.00
2018-09-24T04:17:43.430Z,101139.00
2018-09-24T04:20:18.127Z,101137.00
2018-09-24T04:22:52.758Z,101139.00
2018-09-24T04:25:27.365Z,101142.00
2018-09-24T04:28:02.015Z,101145.00
2018-09-24T04:30:36.477Z,101148.00
2018-09-24T04:33:11.019Z,101153.00
2018-09-24T04:35:45.575Z,101155.00
2018-09-24T04:38:20.155Z,101152.00
2018-09-24T04:40:54.744Z,101158.00
2018-09-24T04:43:29.174Z,101164.00
2018-09-24T04:46:03.645Z,101172.00
2018-09-24T04:48:38.128Z,101173.00
2018-09-24T04:51:12.868Z,101170.00
2018-09-24T04:53:47.403Z,101174.00
2018-09-24T04:56:21.920Z,101178.00
2018-09-24T04:58:56.404Z,101184.00
2018-09-24T05:01:30.981Z,101186.00
2018-09-24T05:04:05.532Z,101188.00
2018-09-24T05:06:40.090Z,101190.00
2018-09-24T05:09:15.000Z,101200.00
2018-09-24T05:11:49.583Z,101211.00
2018-09-24T05:14:24.137Z,101218.00
2018-09-24T05:16:58.720Z,101222.00
2018-09-24T05:19:33.201Z,101222.00
2018-09-24T05:22:07.764Z,101231.00
2018-09-24T05:24:42.317Z,101239.00
2018-09-24T05:27:16.970Z,101239.00
2018-09-24T05:29:51.455Z,101247.00
2018-09-24T05:32:26.143Z,101261.00
2018-09-24T05:35:00.637Z,101260.00
2018-09-24T05:37:35.133Z,101261.00
2018-09-24T05:40:09.617Z,101259.00
2018-09-24T05:42:44.312Z,101265.00
2018-09-24T05:45:18.824Z,101272.00
2018-09-24T05:47:53.654Z,101272.00
2018-09-24T05:50:28.192Z,101277.00
2018-09-24T05:53:02.823Z,101284.00
2018-09-24T05:55:37.621Z,101285.00
2018-09-24T05:58:13.404Z,101291.00
2018-09-24T06:00:47.845Z,101297.00
2018-09-24T06:03:22.380Z,101299.00
2018-09-24T06:05:57.165Z,101306.00
2018-09-24T06:08:31.683Z,101310.00
2018-09-24T06:11:06.295Z,101316.00
2018-09-24T06:13:40.876Z,101320.00
2018-09-24T06:16:15.415Z,101320.00
2018-09-24T06:18:49.884Z,101324.00
2018-09-24T06:21:24.407Z,101333.00
2018-09-24T06:23:58.903Z,101333.00
2018-09-24T06:26:33.591Z,101334.00
2018-09-24T06:29:08.185Z,101336.00
2018-09-24T06:31:42.705Z,101341.00
2018-09-24T06:34:17.358Z,101346.00
2018-09-24T06:36:51.820Z,101355.00
2018-09-24T06:39:26.551Z,101356.00
2018-09-24T06:42:01.172Z,101358.00
2018-09-24T06:44:35.719Z,101368.00
2018-09-24T06:47:10.317Z,101371.00
2018-09-24T06:49:46.751Z,101378.00
2018-09-24T06:52:21.348Z,101377.00
2018-09-24T06:54:55.791Z,101378.00
2018-09-24T06:57:30.370Z,101382.00
2018-09-24T07:00:05.096Z,101395.00
2018-09-24T07:02:39.601Z,101395.00
2018-09-24T07:05:14.239Z,101399.00
2018-09-24T07:07:48.758Z,101407.00
2018-09-24T07:10:23.216Z,101412.00
2018-09-24T07:12:57.793Z,101415.00
2018-09-24T07:15:32.309Z,101422.00
2018-09-24T07:18:07.011Z,101424.00
2018-09-24T07:20:41.529Z,101430.00
2018-09-24T07:23:16.235Z,101430.00
2018-09-24T07:25:50.889Z,101432.00
2018-09-24T07:28:25.450Z,101430.00
2018-09-24T07:30:59.965Z,101434.00
2018-09-24T07:33:34.550Z,101439.00
2018-09-24T07:36:09.097Z,101440.00
2018-09-24T07:38:43.824Z,101442.00
2018-09-24T07:41:18.447Z,101448.00
2018-09-24T07:43:52.940Z,101453.00
2018-09-24T07:46:27.348Z,101460.00
2018-09-24T07:49:01.918Z,101461.00
2018-09-24T07:51:37.565Z,101465.00
2018-09-24T07:54:12.133Z,101474.00
2018-09-24T07:56:46.633Z,101476.00
2018-09-24T07:59:21.057Z,101478.00
2018-09-24T08:01:55.639Z,101486.00
2018-09-24T08:04:30.080Z,101488.00
2018-09-24T08:07:04.739Z,101485.00
2018-09-24T08:09:39.449Z,101496.00
2018-09-24T08:12:14.341Z,101504.00
2018-09-24T08:14:48.940Z,101504.00
2018-09-24T08:17:23.580Z,101505.00
2018-09-24T08:19:58.089Z,101516.00
2018-09-24T08:22:32.783Z,101506.00
2018-09-24T08:25:07.354Z,101518.00
2018-09-24T08:27:41.914Z,101520.00
2018-09-24T08:30:16.420Z,101525.00
2018-09-24T08:32:51.088Z,101521.00
2018-09-24T08:35:25.700Z,101524.00
2018-09-24T08:38:00.424Z,101528.00
2018-09-24T08:40:34.785Z,101527.00
2018-09-24T08:43:09.413Z,101521.00
2018-09-24T08:45:43.980Z,101528.00
2018-09-24T08:48:18.636Z,101531.00
2018-09-24T08:50:53.165Z,101528.00
2018-09-24T08:53:27.859Z,101531.00
2018-09-24T08:56:02.525Z,101539.00
2018-09-24T08:58:37.016Z,101542.00
2018-09-24T09:01:11.643Z,101542.00
2018-09-24T09:03:46.275Z,101550.00
2018-09-24T09:06:20.845Z,101550.00
2018-09-24T09:08:55.420Z,101553.00
2018-09-24T09:11:29.924Z,101553.00
2018-09-24T09:14:04.487Z,101557.00
2018-09-24T09:16:39.137Z,101556.00
2018-09-24T09:19:13.708Z,101559.00
2018-09-24T09:21:48.356Z,101562.00
2018-09-24T09:24:22.966Z,101560.00
2018-09-24T09:26:57.424Z,101565.00
2018-09-24T09:29:31.987Z,101550.00
2018-09-24T09:32:06.587Z,101559.00
2018-09-24T09:34:41.015Z,101562.00
2018-09-24T09:37:15.602Z,101559.00
2018-09-24T09:39:50.144Z,101550.00
2018-09-24T09:42:24.688Z,101548.00
2018-09-24T09:44:59.167Z,101543.00
2018-09-24T09:47:33.745Z,101536.00
2018-09-24T09:50:08.295Z,101538.00
2018-09-24T09:52:42.740Z,101536.00
2018-09-24T09:55:17.436Z,101531.00
2018-09-24T09:57:51.981Z,101539.00
2018-09-24T10:00:26.571Z,101526.00
2018-09-24T10:03:01.124Z,101523.00
2018-09-24T10:05:35.762Z,101529.00
2018-09-24T10:08:10.337Z,101531.00
2018-09-24T10:10:44.757Z,101535.00
2018-09-24T10:13:19.389Z,101537.00
2018-09-24T10:15:53.812Z,101542.00
2018-09-24T10:18:28.226Z,101539.00
2018-09-24T10:21:02.767Z,101538.00
2018-09-24T10:23:37.430Z,101540.00
2018-09-24T10:26:12.046Z,101545.00
2018-09-24T10:28:46.615Z,101548.00
2018-09-24T10:31:21.125Z,101560.00
2018-09-24T10:33:55.709Z,101559.00
2018-09-24T10:36:30.457Z,101555.00
2018-09-24T10:39:05.145Z,101553.00
2018-09-24T10:41:39.736Z,101553.00
2018-09-24T10:44:14.476Z,101547.00
2018-09-24T10:46:49.080Z,101552.00
2018-09-24T10:49:23.650Z,101539.00
2018-09-24T10:51:58.172Z,101538.00
2018-09-24T10:54:32.790Z,101546.00
2018-09-24T10:57:07.277Z,101548.00
2018-09-24T10:59:41.958Z,101547.00
2018-09-24T11:02:16.669Z,101550.00
2018-09-24T11:04:51.214Z,101548.00
2018-09-24T11:07:25.579Z,101558.00
2018-09-24T11:10:00.218Z,101556.00
2018-09-24T11:12:34.747Z,101553.00
2018-09-24T11:15:09.421Z,101544.00
2018-09-24T11:17:44.066Z,101538.00
2018-09-24T11:20:18.609Z,101531.00
2018-09-24T11:22:53.228Z,101533.00
2018-09-24T11:25:27.723Z,101531.00
2018-09-24T11:28:02.227Z,101531.00
2018-09-24T11:30:36.772Z,101539.00
2018-09-24T11:33:11.315Z,101537.00
2018-09-24T11:35:45.917Z,101540.00
2018-09-24T11:38:20.494Z,101534.00
2018-09-24T11:40:55.063Z,101523.00
2018-09-24T11:43:29.683Z,101526.00
2018-09-24T11:46:04.252Z,101521.00
2018-09-24T11:48:38.711Z,101518.00
2018-09-24T11:51:13.402Z,101513.00
2018-09-24T11:53:47.969Z,101515.00
2018-09-24T11:56:22.649Z,101517.00
2018-09-24T11:58:57.185Z,101514.00
2018-09-24T12:01:31.745Z,101510.00
2018-09-24T12:04:06.280Z,101512.00
2018-09-24T12:06:40.869Z,101508.00
2018-09-24T12:09:15.867Z,101511.00
2018-09-24T12:11:50.493Z,101513.00
2018-09-24T12:14:25.535Z,101504.00
2018-09-24T12:17:00.392Z,101512.00
2018-09-24T12:19:34.994Z,101504.00
2018-09-24T12:22:09.684Z,101503.00
2018-09-24T12:24:44.266Z,101497.00
2018-09-24T12:27:19.062Z,101499.00
2018-09-24T12:29:53.732Z,101494.00
2018-09-24T12:32:28.182Z,101507.00
2018-09-24T12:35:02.834Z,101506.00
2018-09-24T12:37:37.455Z,101514.00
2018-09-24T12:40:11.953Z,101510.00
2018-09-24T12:42:46.746Z,101507.00
2018-09-24T12:45:21.192Z,101502.00
2018-09-24T12:47:55.698Z,101504.00
2018-09-24T12:50:30.267Z,101502.00
2018-09-24T12:53:04.746Z,101508.00
2018-09-24T12:55:39.324Z,101501.00
2018-09-24T12:58:14.028Z,101498.00
2018-09-24T13:00:48.752Z,101499.00
2018-09-24T13:03:23.314Z,101497.00
2018-09-24T13:05:57.839Z,101496.00
2018-09-24T13:08:32.306Z,101503.00
2018-09-24T13:11:06.937Z,101500.00
2018-09-24T13:13:41.546Z,101501.00
2018-09-24T13:16:16.186Z,101506.00
2018-09-24T13:18:50.757Z,101507.00
2018-09-24T13:21:25.369Z,101504.00
2018-09-24T13:23:59.978Z,101506.00
2018-09-24T13:26:34.403Z,101507.00
2018-09-24T13:29:08.996Z,101508.00
2018-09-24T13:31:43.593Z,101510.00
2018-09-24T13:34:18.125Z,101499.00
2018-09-24T13:36:52.776Z,101498.00
2018-09-24T13:39:27.417Z,101495.00
2018-09-24T13:42:01.971Z,101499.00
2018-09-24T13:44:36.668Z,101490.00
2018-09-24T13:47:11.232Z,101487.00
2018-09-24T13:49:45.977Z,101491.00
2018-09-24T13:52:20.591Z,101491.00
2018-09-24T13:54:55.152Z,101494.00
2018-09-24T13:57:29.574Z,101488.00
2018-09-24T14:00:04.211Z,101486.00
2018-09-24T14:02:38.829Z,101482.00
2018-09-24T14:05:13.451Z,101477.00
2018-09-24T14:07:48.004Z,101471.00
2018-09-24T14:10:22.682Z,101470.00
2018-09-24T14:12:57.423Z,101457.00
2018-09-24T14:15:31.952Z,101456.00
2018-09-24T14:18:06.428Z,101463.00
2018-09-24T14:20:40.986Z,101459.00
2018-09-24T14:23:15.516Z,101460.00
2018-09-24T14:25:50.165Z,101460.00
2018-09-24T14:28:24.608Z,101459.00
2018-09-24T14:30:59.163Z,101464.00
2018-09-24T14:33:33.788Z,101460.00
2018-09-24T14:36:08.381Z,101457.00
2018-09-24T14:38:42.918Z,101455.00
2018-09-24T14:41:17.445Z,101455.00
2018-09-24T14:43:51.967Z,101455.00
2018-09-24T14:46:26.715Z,101446.00
2018-09-24T14:49:01.361Z,101451.00
2018-09-24T14:51:36.004Z,101449.00
2018-09-24T14:54:10.413Z,101446.00
2018-09-24T14:56:45.153Z,101446.00
2018-09-24T14:59:19.693Z,101442.00
2018-09-24T15:01:54.341Z,101442.00
2018-09-24T15:04:28.952Z,101440.00
2018-09-24T15:07:03.553Z,101438.00
2018-09-24T15:09:38.108Z,101440.00
2018-09-24T15:12:12.654Z,101447.00
2018-09-24T15:14:47.458Z,101444.00
2018-09-24T15:17:22.074Z,101452.00
2018-09-24T15:19:56.563Z,101453.00
2018-09-24T15:22:31.323Z,101456.00
2018-09-24T15:25:05.990Z,101459.00
2018-09-24T15:27:41.978Z,101462.00
2018-09-24T15:30:16.639Z,101470.00
2018-09-24T15:32:51.213Z,101478.00
2018-09-24T15:35:25.799Z,101479.00
2018-09-24T15:38:00.348Z,101484.00
2018-09-24T15:40:34.965Z,101485.00
2018-09-24T15:43:09.454Z,101493.00
2018-09-24T15:45:44.057Z,101483.00
2018-09-24T15:48:18.636Z,101474.00
2018-09-24T15:50:53.297Z,101477.00
2018-09-24T15:53:27.848Z,101476.00
2018-09-24T15:56:02.363Z,101476.00
2018-09-24T15:58:37.005Z,101469.00
2018-09-24T16:01:11.645Z,101474.00
2018-09-24T16:03:46.169Z,101471.00
2018-09-24T16:06:20.740Z,101473.00
2018-09-24T16:08:55.323Z,101470.00
2018-09-24T16:11:29.866Z,101464.00
2018-09-24T16:14:04.464Z,101465.00
2018-09-24T16:16:39.090Z,101466.00
2018-09-24T16:19:13.662Z,101463.00
2018-09-24T16:21:55.143Z,101465.00
2018-09-24T16:24:29.619Z,101469.00
2018-09-24T16:27:04.237Z,101472.00
2018-09-24T16:29:38.696Z,101473.00
2018-09-24T16:32:13.181Z,101472.00
2018-09-24T16:34:47.673Z,101473.00
2018-09-24T16:37:22.278Z,101477.00
2018-09-24T16:39:56.700Z,101481.00
2018-09-24T16:42:46.850Z,101477.00
2018-09-24T16:45:21.485Z,101480.00
2018-09-24T16:47:55.940Z,101480.00
2018-09-24T16:50:30.568Z,101487.00
2018-09-24T16:53:05.220Z,101482.00
2018-09-24T16:55:39.801Z,101483.00
2018-09-24T16:58:14.386Z,101482.00
2018-09-24T17:00:48.866Z,101480.00
2018-09-24T17:03:23.471Z,101483.00
2018-09-24T17:05:58.022Z,101489.00
2018-09-24T17:08:32.724Z,101488.00
2018-09-24T17:11:07.682Z,101491.00
2018-09-24T17:13:42.851Z,101499.00
2018-09-24T17:16:17.450Z,101503.00
2018-09-24T17:18:52.015Z,101508.00
2018-09-24T17:21:26.515Z,101509.00
2018-09-24T17:24:01.055Z,101514.00
2018-09-24T17:26:35.505Z,101522.00
2018-09-24T17:29:10.240Z,101523.00
2018-09-24T17:31:44.895Z,101529.00
2018-09-24T17:34:19.475Z,101534.00
2018-09-24T17:36:54.299Z,101539.00
2018-09-24T17:39:28.888Z,101538.00
2018-09-24T17:42:03.460Z,101542.00
2018-09-24T17:44:38.039Z,101550.00
2018-09-24T17:47:13.168Z,101552.00
2018-09-24T17:49:47.677Z,101557.00
2018-09-24T17:52:22.285Z,101561.00
2018-09-24T17:54:56.792Z,101559.00
2018-09-24T17:57:31.376Z,101568.00
2018-09-24T18:00:08.492Z,101571.00
2018-09-24T18:02:44.687Z,101572.00
2018-09-24T18:05:21.444Z,101579.00
2018-09-24T18:07:59.855Z,101578.00
2018-09-24T18:10:36.301Z,101584.00
2018-09-24T18:13:12.443Z,101590.00
2018-09-24T18:15:48.376Z,101594.00
2018-09-24T18:18:24.920Z,101594.00
2018-09-24T18:21:00.463Z,101603.00
2018-09-24T18:23:38.770Z,101603.00
2018-09-24T18:26:15.246Z,101606.00
2018-09-24T18:28:49.777Z,101609.00
2018-09-24T18:31:24.420Z,101614.00
2018-09-24T18:33:59.029Z,101615.00
2018-09-24T18:36:33.758Z,101618.00
2018-09-24T18:39:08.586Z,101621.00
2018-09-24T18:41:43.377Z,101624.00
2018-09-24T18:44:18.114Z,101628.00
2018-09-24T18:46:52.791Z,101635.00
2018-09-24T18:49:27.371Z,101631.00
2018-09-24T18:52:01.885Z,101638.00
2018-09-24T18:54:36.482Z,101642.00
2018-09-24T18:57:11.074Z,101646.00
2018-09-24T18:59:45.681Z,101656.00
2018-09-24T19:02:20.292Z,101660.00
2018-09-24T19:04:54.805Z,101658.00
2018-09-24T19:07:29.581Z,101662.00
2018-09-24T19:10:04.314Z,101665.00
2018-09-24T19:12:39.026Z,101667.00
2018-09-24T19:15:13.736Z,101666.00
2018-09-24T19:17:48.550Z,101671.00
2018-09-24T19:20:23.255Z,101676.00
2018-09-24T19:22:57.970Z,101675.00
2018-09-24T19:25:32.577Z,101681.00
2018-09-24T19:28:07.218Z,101690.00
2018-09-24T19:30:41.767Z,101690.00
2018-09-24T19:33:16.261Z,101697.00
2018-09-24T19:35:50.808Z,101701.00
2018-09-24T19:38:25.421Z,101706.00
2018-09-24T19:41:00.028Z,101711.00
2018-09-24T19:43:34.796Z,101708.00
2018-09-24T19:46:09.486Z,101708.00
2018-09-24T19:48:44.248Z,101709.00
2018-09-24T19:51:18.775Z,101710.00
2018-09-24T19:53:53.507Z,101708.00
2018-09-24T19:56:28.147Z,101716.00
2018-09-24T19:59:02.734Z,101715.00
2018-09-24T20:01:37.451Z,101715.00
2018-09-24T20:04:12.281Z,101719.00
2018-09-24T20:06:46.944Z,101721.00
2018-09-24T20:09:21.597Z,101722.00
2018-09-24T20:11:56.318Z,101724.00
2018-09-24T20:14:31.086Z,101724.00
2018-09-24T20:17:05.831Z,101726.00
2018-09-24T20:19:40.519Z,101723.00
2018-09-24T20:22:15.052Z,101734.00
2018-09-24T20:24:49.642Z,101741.00
2018-09-24T20:27:24.221Z,101741.00
2018-09-24T20:29:58.727Z,101741.00
2018-09-24T20:32:33.463Z,101746.00
2018-09-24T20:35:08.142Z,101744.00
2018-09-24T20:37:42.845Z,101744.00
2018-09-24T20:40:17.580Z,101747.00
2018-09-24T20:42:52.173Z,101749.00
2018-09-24T20:45:26.834Z,101757.00
2018-09-24T20:48:01.511Z,101757.00
2018-09-24T20:50:36.060Z,101754.00
2018-09-24T20:53:10.887Z,101755.00
2018-09-24T20:55:45.627Z,101748.00
2018-09-24T20:58:20.227Z,101753.00
2018-09-24T21:00:54.768Z,101753.00
2018-09-24T21:03:29.365Z,101763.00
2018-09-24T21:06:03.953Z,101763.00
2018-09-24T21:08:38.714Z,101761.00
2018-09-24T21:11:13.279Z,101765.00
2018-09-24T21:13:47.936Z,101762.00
2018-09-24T21:16:22.456Z,101762.00
2018-09-24T21:18:56.927Z,101763.00
2018-09-24T21:21:31.531Z,101764.00
2018-09-24T21:24:06.260Z,101757.00
2018-09-24T21:26:40.905Z,101761.00
2018-09-24T21:29:15.348Z,101766.00
2018-09-24T21:31:49.863Z,101765.00
2018-09-24T21:34:24.447Z,101764.00
2018-09-24T21:36:59.038Z,101779.00
2018-09-24T21:39:33.581Z,101772.00
2018-09-24T21:42:07.915Z,101780.00
2018-09-24T21:44:42.465Z,101777.00
2018-09-24T21:47:17.159Z,101783.00
2018-09-24T21:49:51.580Z,101787.00
2018-09-24T21:52:26.235Z,101794.00
2018-09-24T21:55:00.838Z,101796.00
2018-09-24T21:57:35.296Z,101793.00
2018-09-24T22:00:10.211Z,101798.00
2018-09-24T22:02:44.820Z,101802.00
2018-09-24T22:05:19.625Z,101799.00
2018-09-24T22:07:54.195Z,101803.00
2018-09-24T22:10:28.821Z,101803.00
2018-09-24T22:13:03.229Z,101810.00
2018-09-24T22:15:37.736Z,101817.00
2018-09-24T22:18:12.406Z,101811.00
2018-09-24T22:20:47.040Z,101812.00
2018-09-24T22:23:21.686Z,101812.00
2018-09-24T22:25:56.348Z,101812.00
2018-09-24T22:28:31.079Z,101814.00
2018-09-24T22:31:05.610Z,101819.00
2018-09-24T22:33:40.149Z,101815.00
2018-09-24T22:36:14.839Z,101813.00
2018-09-24T22:38:49.405Z,101818.00
2018-09-24T22:41:23.820Z,101821.00
2018-09-24T22:43:58.501Z,101819.00
2018-09-24T22:46:32.973Z,101826.00
2018-09-24T22:49:07.439Z,101826.00
2018-09-24T22:51:41.921Z,101820.00
2018-09-24T22:54:16.486Z,101816.00
2018-09-24T22:56:51.055Z,101824.00
2018-09-24T22:59:25.736Z,101821.00
2018-09-24T23:02:00.284Z,101830.00
2018-09-24T23:04:34.955Z,101835.00
2018-09-24T23:07:09.627Z,101833.00
2018-09-24T23:09:44.355Z,101833.00
2018-09-24T23:12:18.949Z,101837.00
2018-09-24T23:14:53.525Z,101837.00
2018-09-24T23:17:28.176Z,101840.00
2018-09-24T23:20:02.649Z,101842.00
2018-09-24T23:22:37.272Z,101837.00
2018-09-24T23:25:11.881Z,101836.00
2018-09-24T23:27:46.590Z,101836.00
2018-09-24T23:30:21.199Z,101832.00
2018-09-24T23:32:55.787Z,101838.00
2018-09-24T23:35:30.358Z,101836.00
2018-09-24T23:38:04.745Z,101845.00
2018-09-24T23:40:39.319Z,101847.00
2018-09-24T23:43:13.862Z,101842.00
2018-09-24T23:45:48.401Z,101843.00
2018-09-24T23:48:23.020Z,101847.00
2018-09-24T23:50:57.561Z,101849.00
2018-09-24T23:53:32.045Z,101847.00
2018-09-24T23:56:06.368Z,101845.00
2018-09-24T23:58:41.105Z,101848.00
